sensor_id;sensor_type;location;lat;lon;timestamp;temperature;humidity
37842;DHT22;23682;53.508;10.476;2022-08-01T00:00:06;19.20;99.90
37842;DHT22;23682;53.508;10.476;2022-08-01T00:02:36;19.20;99.90
37842;DHT22;23682;53.508;10.476;2022-08-01T00:05:05;19.20;99.90
37842;DHT22;23682;53.508;10.476;2022-08-01T00:07:33;19.20;99.90
37842;DHT22;23682;53.508;10.476;2022-08-01T00:10:05;19.20;99.90
37842;DHT22;23682;53.508;10.476;2022-08-01T00:12:32;19.10;99.90
37842;DHT22;23682;53.508;10.476;2022-08-01T00:14:59;19.10;99.90
37842;DHT22;23682;53.508;10.476;2022-08-01T00:17:26;19.10;99.90
37842;DHT22;23682;53.508;10.476;2022-08-01T00:19:52;19.20;99.90
37842;DHT22;23682;53.508;10.476;2022-08-01T00:22:19;19.20;99.90
37842;DHT22;23682;53.508;10.476;2022-08-01T00:24:46;19.20;99.90
37842;DHT22;23682;53.508;10.476;2022-08-01T00:27:13;19.20;99.90
37842;DHT22;23682;53.508;10.476;2022-08-01T00:29:39;19.20;99.90
37842;DHT22;23682;53.508;10.476;2022-08-01T00:32:26;19.20;99.90
37842;DHT22;23682;53.508;10.476;2022-08-01T00:34:53;19.20;99.90
37842;DHT22;23682;53.508;10.476;2022-08-01T00:37:21;19.20;99.90
37842;DHT22;23682;53.508;10.476;2022-08-01T00:39:48;19.20;99.90
37842;DHT22;23682;53.508;10.476;2022-08-01T00:42:15;19.20;99.90
37842;DHT22;23682;53.508;10.476;2022-08-01T00:44:41;19.20;99.90
37842;DHT22;23682;53.508;10.476;2022-08-01T00:47:08;19.20;99.90
37842;DHT22;23682;53.508;10.476;2022-08-01T00:49:35;19.20;99.90
37842;DHT22;23682;53.508;10.476;2022-08-01T00:52:03;19.20;99.90
37842;DHT22;23682;53.508;10.476;2022-08-01T00:54:32;19.20;99.90
37842;DHT22;23682;53.508;10.476;2022-08-01T00:56:59;19.10;99.90
37842;DHT22;23682;53.508;10.476;2022-08-01T00:59:26;19.10;99.90
37842;DHT22;23682;53.508;10.476;2022-08-01T01:01:54;19.10;99.90
37842;DHT22;23682;53.508;10.476;2022-08-01T01:04:27;19.10;99.90
37842;DHT22;23682;53.508;10.476;2022-08-01T01:07:26;19.20;99.90
37842;DHT22;23682;53.508;10.476;2022-08-01T01:12:52;19.10;99.90
37842;DHT22;23682;53.508;10.476;2022-08-01T01:18:05;19.10;99.90
37842;DHT22;23682;53.508;10.476;2022-08-01T01:20:40;19.10;99.90
37842;DHT22;23682;53.508;10.476;2022-08-01T01:31:27;19.20;99.90
37842;DHT22;23682;53.508;10.476;2022-08-01T01:33:57;19.20;99.90
37842;DHT22;23682;53.508;10.476;2022-08-01T01:36:26;19.10;99.90
37842;DHT22;23682;53.508;10.476;2022-08-01T01:38:54;19.20;99.90
37842;DHT22;23682;53.508;10.476;2022-08-01T01:41:22;19.10;99.90
37842;DHT22;23682;53.508;10.476;2022-08-01T01:43:50;19.10;99.90
37842;DHT22;23682;53.508;10.476;2022-08-01T01:46:22;19.10;99.90
37842;DHT22;23682;53.508;10.476;2022-08-01T01:48:50;19.10;99.90
37842;DHT22;23682;53.508;10.476;2022-08-01T01:51:21;19.10;99.90
37842;DHT22;23682;53.508;10.476;2022-08-01T01:53:49;19.10;99.90
37842;DHT22;23682;53.508;10.476;2022-08-01T01:56:19;19.10;99.90
37842;DHT22;23682;53.508;10.476;2022-08-01T01:58:51;19.10;99.90
37842;DHT22;23682;53.508;10.476;2022-08-01T02:01:21;19.10;99.90
37842;DHT22;23682;53.508;10.476;2022-08-01T02:04:08;19.10;99.90
37842;DHT22;23682;53.508;10.476;2022-08-01T02:06:37;19.10;99.90
37842;DHT22;23682;53.508;10.476;2022-08-01T02:09:05;19.10;99.90
37842;DHT22;23682;53.508;10.476;2022-08-01T02:11:36;19.10;99.90
37842;DHT22;23682;53.508;10.476;2022-08-01T02:14:23;19.10;99.90
37842;DHT22;23682;53.508;10.476;2022-08-01T02:16:50;19.10;99.90
37842;DHT22;23682;53.508;10.476;2022-08-01T02:19:17;19.00;99.90
37842;DHT22;23682;53.508;10.476;2022-08-01T02:21:52;19.00;99.90
37842;DHT22;23682;53.508;10.476;2022-08-01T02:24:30;19.00;99.90
37842;DHT22;23682;53.508;10.476;2022-08-01T02:27:01;19.00;99.90
37842;DHT22;23682;53.508;10.476;2022-08-01T02:29:42;19.00;99.90
37842;DHT22;23682;53.508;10.476;2022-08-01T02:32:23;19.00;99.90
37842;DHT22;23682;53.508;10.476;2022-08-01T02:34:51;19.00;99.90
37842;DHT22;23682;53.508;10.476;2022-08-01T02:37:19;18.90;99.90
37842;DHT22;23682;53.508;10.476;2022-08-01T02:39:50;18.90;99.90
37842;DHT22;23682;53.508;10.476;2022-08-01T02:42:19;19.00;99.90
37842;DHT22;23682;53.508;10.476;2022-08-01T02:44:47;19.00;99.90
37842;DHT22;23682;53.508;10.476;2022-08-01T02:47:15;19.00;99.90
37842;DHT22;23682;53.508;10.476;2022-08-01T02:49:47;19.00;99.90
37842;DHT22;23682;53.508;10.476;2022-08-01T02:52:21;19.00;99.90
37842;DHT22;23682;53.508;10.476;2022-08-01T02:54:52;19.00;99.90
37842;DHT22;23682;53.508;10.476;2022-08-01T02:57:20;19.00;99.90
37842;DHT22;23682;53.508;10.476;2022-08-01T02:59:52;19.00;99.90
37842;DHT22;23682;53.508;10.476;2022-08-01T03:02:22;18.90;99.90
37842;DHT22;23682;53.508;10.476;2022-08-01T03:04:52;18.90;99.90
37842;DHT22;23682;53.508;10.476;2022-08-01T03:07:23;18.90;99.90
37842;DHT22;23682;53.508;10.476;2022-08-01T03:10:01;18.90;99.90
37842;DHT22;23682;53.508;10.476;2022-08-01T03:12:29;18.90;99.90
37842;DHT22;23682;53.508;10.476;2022-08-01T03:14:58;18.90;99.90
37842;DHT22;23682;53.508;10.476;2022-08-01T03:17:28;18.90;99.90
37842;DHT22;23682;53.508;10.476;2022-08-01T03:19:57;18.80;99.90
37842;DHT22;23682;53.508;10.476;2022-08-01T03:22:26;18.80;99.90
37842;DHT22;23682;53.508;10.476;2022-08-01T03:24:56;18.80;99.90
37842;DHT22;23682;53.508;10.476;2022-08-01T03:27:24;18.80;99.90
37842;DHT22;23682;53.508;10.476;2022-08-01T03:29:54;18.80;99.90
37842;DHT22;23682;53.508;10.476;2022-08-01T03:32:22;18.80;99.90
37842;DHT22;23682;53.508;10.476;2022-08-01T03:34:49;18.80;99.90
37842;DHT22;23682;53.508;10.476;2022-08-01T03:37:28;18.80;99.90
37842;DHT22;23682;53.508;10.476;2022-08-01T03:40:09;18.80;99.90
37842;DHT22;23682;53.508;10.476;2022-08-01T03:42:45;18.80;99.90
37842;DHT22;23682;53.508;10.476;2022-08-01T03:45:23;18.80;99.90
37842;DHT22;23682;53.508;10.476;2022-08-01T03:48:03;18.80;99.90
37842;DHT22;23682;53.508;10.476;2022-08-01T03:50:33;18.80;99.90
37842;DHT22;23682;53.508;10.476;2022-08-01T03:53:02;18.80;99.90
37842;DHT22;23682;53.508;10.476;2022-08-01T03:55:31;18.80;99.90
37842;DHT22;23682;53.508;10.476;2022-08-01T03:57:58;18.80;99.90
37842;DHT22;23682;53.508;10.476;2022-08-01T04:00:27;18.80;99.90
37842;DHT22;23682;53.508;10.476;2022-08-01T04:02:54;18.80;99.90
37842;DHT22;23682;53.508;10.476;2022-08-01T04:05:21;18.80;99.90
37842;DHT22;23682;53.508;10.476;2022-08-01T04:07:50;18.80;99.90
37842;DHT22;23682;53.508;10.476;2022-08-01T04:10:23;18.80;99.90
37842;DHT22;23682;53.508;10.476;2022-08-01T04:12:50;18.80;99.90
37842;DHT22;23682;53.508;10.476;2022-08-01T04:15:18;18.80;99.90
37842;DHT22;23682;53.508;10.476;2022-08-01T04:17:44;18.80;99.90
37842;DHT22;23682;53.508;10.476;2022-08-01T04:20:11;18.90;99.90
37842;DHT22;23682;53.508;10.476;2022-08-01T04:22:39;18.90;99.90
37842;DHT22;23682;53.508;10.476;2022-08-01T04:25:19;18.90;99.90
37842;DHT22;23682;53.508;10.476;2022-08-01T04:27:49;18.90;99.90
37842;DHT22;23682;53.508;10.476;2022-08-01T04:30:22;18.90;99.90
37842;DHT22;23682;53.508;10.476;2022-08-01T04:32:52;18.90;99.90
37842;DHT22;23682;53.508;10.476;2022-08-01T04:35:21;18.90;99.90
37842;DHT22;23682;53.508;10.476;2022-08-01T04:38:10;18.90;99.90
37842;DHT22;23682;53.508;10.476;2022-08-01T04:40:39;18.90;99.90
37842;DHT22;23682;53.508;10.476;2022-08-01T04:43:07;18.90;99.90
37842;DHT22;23682;53.508;10.476;2022-08-01T04:45:35;18.80;99.90
37842;DHT22;23682;53.508;10.476;2022-08-01T04:48:05;18.80;99.90
37842;DHT22;23682;53.508;10.476;2022-08-01T04:50:34;18.80;99.90
37842;DHT22;23682;53.508;10.476;2022-08-01T04:53:02;18.80;99.90
37842;DHT22;23682;53.508;10.476;2022-08-01T04:55:29;18.80;99.90
37842;DHT22;23682;53.508;10.476;2022-08-01T04:57:57;18.80;99.90
37842;DHT22;23682;53.508;10.476;2022-08-01T05:00:25;18.80;99.90
37842;DHT22;23682;53.508;10.476;2022-08-01T05:02:52;18.80;99.90
37842;DHT22;23682;53.508;10.476;2022-08-01T05:05:19;18.80;99.90
37842;DHT22;23682;53.508;10.476;2022-08-01T05:07:47;18.90;99.90
37842;DHT22;23682;53.508;10.476;2022-08-01T05:10:14;18.90;99.90
37842;DHT22;23682;53.508;10.476;2022-08-01T05:12:40;18.90;99.90
37842;DHT22;23682;53.508;10.476;2022-08-01T05:15:08;19.00;99.90
37842;DHT22;23682;53.508;10.476;2022-08-01T05:17:41;19.00;99.90
37842;DHT22;23682;53.508;10.476;2022-08-01T05:20:11;19.00;99.90
37842;DHT22;23682;53.508;10.476;2022-08-01T05:22:38;19.00;99.90
37842;DHT22;23682;53.508;10.476;2022-08-01T05:25:05;18.90;99.90
37842;DHT22;23682;53.508;10.476;2022-08-01T05:27:32;19.00;99.90
37842;DHT22;23682;53.508;10.476;2022-08-01T05:30:06;18.90;99.90
37842;DHT22;23682;53.508;10.476;2022-08-01T05:32:33;19.00;99.90
37842;DHT22;23682;53.508;10.476;2022-08-01T05:35:00;19.10;99.90
37842;DHT22;23682;53.508;10.476;2022-08-01T05:37:27;19.10;99.90
37842;DHT22;23682;53.508;10.476;2022-08-01T05:39:54;19.20;99.90
37842;DHT22;23682;53.508;10.476;2022-08-01T05:42:20;19.20;99.90
37842;DHT22;23682;53.508;10.476;2022-08-01T05:44:47;19.30;99.90
37842;DHT22;23682;53.508;10.476;2022-08-01T05:47:14;19.40;99.90
37842;DHT22;23682;53.508;10.476;2022-08-01T05:49:41;19.50;99.90
37842;DHT22;23682;53.508;10.476;2022-08-01T05:52:07;19.50;99.90
37842;DHT22;23682;53.508;10.476;2022-08-01T05:54:35;19.50;99.90
37842;DHT22;23682;53.508;10.476;2022-08-01T05:57:02;19.50;99.90
37842;DHT22;23682;53.508;10.476;2022-08-01T05:59:29;19.40;99.90
37842;DHT22;23682;53.508;10.476;2022-08-01T06:01:56;19.40;99.90
37842;DHT22;23682;53.508;10.476;2022-08-01T06:04:23;19.40;99.90
37842;DHT22;23682;53.508;10.476;2022-08-01T06:06:50;19.30;99.90
37842;DHT22;23682;53.508;10.476;2022-08-01T06:09:17;19.30;99.90
37842;DHT22;23682;53.508;10.476;2022-08-01T06:11:44;19.30;99.90
37842;DHT22;23682;53.508;10.476;2022-08-01T06:14:10;19.30;99.90
37842;DHT22;23682;53.508;10.476;2022-08-01T06:16:37;19.40;99.90
37842;DHT22;23682;53.508;10.476;2022-08-01T06:19:04;19.40;99.90
37842;DHT22;23682;53.508;10.476;2022-08-01T06:21:31;19.50;99.90
37842;DHT22;23682;53.508;10.476;2022-08-01T06:23:57;19.40;99.90
37842;DHT22;23682;53.508;10.476;2022-08-01T06:26:24;19.50;99.90
37842;DHT22;23682;53.508;10.476;2022-08-01T06:28:51;19.60;99.90
37842;DHT22;23682;53.508;10.476;2022-08-01T06:31:17;19.80;99.90
37842;DHT22;23682;53.508;10.476;2022-08-01T06:33:44;19.80;99.90
37842;DHT22;23682;53.508;10.476;2022-08-01T06:36:11;19.80;99.90
37842;DHT22;23682;53.508;10.476;2022-08-01T06:38:38;19.90;99.90
37842;DHT22;23682;53.508;10.476;2022-08-01T06:41:05;20.10;99.90
37842;DHT22;23682;53.508;10.476;2022-08-01T06:43:31;20.30;99.90
37842;DHT22;23682;53.508;10.476;2022-08-01T06:45:58;20.40;99.90
37842;DHT22;23682;53.508;10.476;2022-08-01T06:48:25;20.40;99.90
37842;DHT22;23682;53.508;10.476;2022-08-01T06:50:52;20.40;99.90
37842;DHT22;23682;53.508;10.476;2022-08-01T06:53:36;20.50;99.90
37842;DHT22;23682;53.508;10.476;2022-08-01T06:56:03;20.40;99.90
37842;DHT22;23682;53.508;10.476;2022-08-01T06:58:30;20.20;99.90
37842;DHT22;23682;53.508;10.476;2022-08-01T07:00:57;20.20;99.90
37842;DHT22;23682;53.508;10.476;2022-08-01T07:03:25;20.20;99.90
37842;DHT22;23682;53.508;10.476;2022-08-01T07:06:12;20.10;99.90
37842;DHT22;23682;53.508;10.476;2022-08-01T07:08:40;20.20;99.90
37842;DHT22;23682;53.508;10.476;2022-08-01T07:11:07;20.30;99.90
37842;DHT22;23682;53.508;10.476;2022-08-01T07:13:34;20.60;99.90
37842;DHT22;23682;53.508;10.476;2022-08-01T07:16:09;20.70;99.90
37842;DHT22;23682;53.508;10.476;2022-08-01T07:18:36;20.90;99.90
37842;DHT22;23682;53.508;10.476;2022-08-01T07:21:02;20.80;99.90
37842;DHT22;23682;53.508;10.476;2022-08-01T07:23:30;20.70;99.90
37842;DHT22;23682;53.508;10.476;2022-08-01T07:26:03;20.50;99.90
37842;DHT22;23682;53.508;10.476;2022-08-01T07:28:30;20.40;99.90
37842;DHT22;23682;53.508;10.476;2022-08-01T07:30:57;20.30;99.90
37842;DHT22;23682;53.508;10.476;2022-08-01T07:33:24;20.40;99.90
37842;DHT22;23682;53.508;10.476;2022-08-01T07:35:50;20.20;99.90
37842;DHT22;23682;53.508;10.476;2022-08-01T07:38:17;20.40;99.90
37842;DHT22;23682;53.508;10.476;2022-08-01T07:40:44;20.10;99.90
37842;DHT22;23682;53.508;10.476;2022-08-01T07:43:11;20.30;99.90
37842;DHT22;23682;53.508;10.476;2022-08-01T07:45:37;20.30;99.90
37842;DHT22;23682;53.508;10.476;2022-08-01T07:48:12;20.30;99.90
37842;DHT22;23682;53.508;10.476;2022-08-01T07:50:38;20.40;99.90
37842;DHT22;23682;53.508;10.476;2022-08-01T07:53:05;20.40;99.90
37842;DHT22;23682;53.508;10.476;2022-08-01T07:55:32;20.40;99.90
37842;DHT22;23682;53.508;10.476;2022-08-01T07:57:59;20.30;99.90
37842;DHT22;23682;53.508;10.476;2022-08-01T08:00:25;20.20;99.90
37842;DHT22;23682;53.508;10.476;2022-08-01T08:02:54;20.20;99.90
37842;DHT22;23682;53.508;10.476;2022-08-01T08:05:21;20.20;99.90
37842;DHT22;23682;53.508;10.476;2022-08-01T08:08:08;20.10;99.90
37842;DHT22;23682;53.508;10.476;2022-08-01T08:10:35;20.10;99.90
37842;DHT22;23682;53.508;10.476;2022-08-01T08:13:03;20.20;99.90
37842;DHT22;23682;53.508;10.476;2022-08-01T08:15:29;20.20;99.90
37842;DHT22;23682;53.508;10.476;2022-08-01T08:17:59;20.20;99.90
37842;DHT22;23682;53.508;10.476;2022-08-01T08:20:26;20.20;99.90
37842;DHT22;23682;53.508;10.476;2022-08-01T08:22:54;20.30;99.90
37842;DHT22;23682;53.508;10.476;2022-08-01T08:25:21;20.40;99.90
37842;DHT22;23682;53.508;10.476;2022-08-01T08:27:52;20.50;99.90
37842;DHT22;23682;53.508;10.476;2022-08-01T08:30:19;20.50;99.90
37842;DHT22;23682;53.508;10.476;2022-08-01T08:32:47;20.50;99.90
37842;DHT22;23682;53.508;10.476;2022-08-01T08:35:14;20.30;99.90
37842;DHT22;23682;53.508;10.476;2022-08-01T08:38:01;20.30;99.90
37842;DHT22;23682;53.508;10.476;2022-08-01T08:40:30;20.40;99.90
37842;DHT22;23682;53.508;10.476;2022-08-01T08:42:59;20.70;99.90
37842;DHT22;23682;53.508;10.476;2022-08-01T08:45:27;21.00;99.90
37842;DHT22;23682;53.508;10.476;2022-08-01T08:48:14;21.00;99.90
37842;DHT22;23682;53.508;10.476;2022-08-01T08:50:42;21.40;99.90
37842;DHT22;23682;53.508;10.476;2022-08-01T08:53:10;21.50;99.90
37842;DHT22;23682;53.508;10.476;2022-08-01T08:55:44;21.60;99.90
37842;DHT22;23682;53.508;10.476;2022-08-01T08:58:23;21.70;99.90
37842;DHT22;23682;53.508;10.476;2022-08-01T09:00:57;21.70;99.90
37842;DHT22;23682;53.508;10.476;2022-08-01T09:03:24;21.60;99.90
37842;DHT22;23682;53.508;10.476;2022-08-01T09:05:51;21.60;99.90
37842;DHT22;23682;53.508;10.476;2022-08-01T09:08:18;21.50;99.90
37842;DHT22;23682;53.508;10.476;2022-08-01T09:10:45;21.80;99.90
37842;DHT22;23682;53.508;10.476;2022-08-01T09:13:14;21.60;99.90
37842;DHT22;23682;53.508;10.476;2022-08-01T09:21:16;22.00;99.90
37842;DHT22;23682;53.508;10.476;2022-08-01T09:23:49;22.00;99.90
37842;DHT22;23682;53.508;10.476;2022-08-01T09:26:28;21.80;99.90
37842;DHT22;23682;53.508;10.476;2022-08-01T09:28:57;21.70;99.90
37842;DHT22;23682;53.508;10.476;2022-08-01T09:31:27;21.80;99.90
37842;DHT22;23682;53.508;10.476;2022-08-01T09:34:04;21.50;99.90
37842;DHT22;23682;53.508;10.476;2022-08-01T09:39:26;21.10;99.90
37842;DHT22;23682;53.508;10.476;2022-08-01T09:41:55;21.30;99.90
37842;DHT22;23682;53.508;10.476;2022-08-01T09:44:42;21.60;99.90
37842;DHT22;23682;53.508;10.476;2022-08-01T09:47:21;21.80;99.90
37842;DHT22;23682;53.508;10.476;2022-08-01T09:49:57;22.00;99.90
37842;DHT22;23682;53.508;10.476;2022-08-01T09:52:26;21.90;99.90
37842;DHT22;23682;53.508;10.476;2022-08-01T09:57:22;21.60;99.90
37842;DHT22;23682;53.508;10.476;2022-08-01T09:59:51;21.50;99.90
37842;DHT22;23682;53.508;10.476;2022-08-01T10:04:55;21.60;99.90
37842;DHT22;23682;53.508;10.476;2022-08-01T10:07:33;21.70;99.90
37842;DHT22;23682;53.508;10.476;2022-08-01T10:10:12;21.70;99.90
37842;DHT22;23682;53.508;10.476;2022-08-01T10:12:41;21.80;99.90
37842;DHT22;23682;53.508;10.476;2022-08-01T10:15:14;21.70;99.90
37842;DHT22;23682;53.508;10.476;2022-08-01T10:17:53;21.50;99.90
37842;DHT22;23682;53.508;10.476;2022-08-01T10:20:28;21.60;99.90
37842;DHT22;23682;53.508;10.476;2022-08-01T10:23:00;21.80;99.90
37842;DHT22;23682;53.508;10.476;2022-08-01T10:25:35;21.90;99.90
37842;DHT22;23682;53.508;10.476;2022-08-01T10:28:17;22.10;99.90
37842;DHT22;23682;53.508;10.476;2022-08-01T10:30:48;22.40;99.90
37842;DHT22;23682;53.508;10.476;2022-08-01T10:33:16;22.50;99.90
37842;DHT22;23682;53.508;10.476;2022-08-01T10:36:04;22.60;99.90
37842;DHT22;23682;53.508;10.476;2022-08-01T10:38:34;22.40;99.90
37842;DHT22;23682;53.508;10.476;2022-08-01T10:41:04;22.40;99.90
37842;DHT22;23682;53.508;10.476;2022-08-01T10:43:32;22.30;99.90
37842;DHT22;23682;53.508;10.476;2022-08-01T10:46:04;22.10;99.90
37842;DHT22;23682;53.508;10.476;2022-08-01T10:48:54;22.10;99.90
37842;DHT22;23682;53.508;10.476;2022-08-01T10:51:22;22.30;99.90
37842;DHT22;23682;53.508;10.476;2022-08-01T10:54:11;22.20;99.90
37842;DHT22;23682;53.508;10.476;2022-08-01T10:56:49;22.10;99.90
37842;DHT22;23682;53.508;10.476;2022-08-01T10:59:28;22.30;99.90
37842;DHT22;23682;53.508;10.476;2022-08-01T11:02:41;22.20;99.90
37842;DHT22;23682;53.508;10.476;2022-08-01T11:05:23;22.20;99.90
37842;DHT22;23682;53.508;10.476;2022-08-01T11:07:54;22.20;99.90
37842;DHT22;23682;53.508;10.476;2022-08-01T11:10:36;22.20;99.90
37842;DHT22;23682;53.508;10.476;2022-08-01T11:13:06;22.10;99.90
37842;DHT22;23682;53.508;10.476;2022-08-01T11:15:39;22.30;99.90
37842;DHT22;23682;53.508;10.476;2022-08-01T11:18:29;22.20;99.90
37842;DHT22;23682;53.508;10.476;2022-08-01T11:21:01;22.30;99.90
37842;DHT22;23682;53.508;10.476;2022-08-01T11:23:50;22.20;99.70
37842;DHT22;23682;53.508;10.476;2022-08-01T11:26:20;22.20;99.30
37842;DHT22;23682;53.508;10.476;2022-08-01T11:29:17;22.20;98.80
37842;DHT22;23682;53.508;10.476;2022-08-01T11:31:48;22.10;97.90
37842;DHT22;23682;53.508;10.476;2022-08-01T11:34:15;22.10;98.50
37842;DHT22;23682;53.508;10.476;2022-08-01T11:36:42;22.00;98.80
37842;DHT22;23682;53.508;10.476;2022-08-01T11:39:29;22.10;99.40
37842;DHT22;23682;53.508;10.476;2022-08-01T11:42:17;22.20;98.60
37842;DHT22;23682;53.508;10.476;2022-08-01T11:44:50;22.30;99.10
37842;DHT22;23682;53.508;10.476;2022-08-01T11:47:17;22.40;99.00
37842;DHT22;23682;53.508;10.476;2022-08-01T11:49:48;22.40;99.30
37842;DHT22;23682;53.508;10.476;2022-08-01T11:52:25;22.30;98.90
37842;DHT22;23682;53.508;10.476;2022-08-01T11:54:55;22.30;98.20
37842;DHT22;23682;53.508;10.476;2022-08-01T11:57:28;22.40;98.40
37842;DHT22;23682;53.508;10.476;2022-08-01T12:00:05;22.40;98.30
37842;DHT22;23682;53.508;10.476;2022-08-01T12:02:41;22.50;97.70
37842;DHT22;23682;53.508;10.476;2022-08-01T12:05:16;22.60;97.70
37842;DHT22;23682;53.508;10.476;2022-08-01T12:07:45;22.70;97.90
37842;DHT22;23682;53.508;10.476;2022-08-01T12:10:17;22.60;97.30
37842;DHT22;23682;53.508;10.476;2022-08-01T12:12:53;22.80;98.00
37842;DHT22;23682;53.508;10.476;2022-08-01T12:15:22;22.90;97.70
37842;DHT22;23682;53.508;10.476;2022-08-01T12:17:59;23.00;97.70
37842;DHT22;23682;53.508;10.476;2022-08-01T12:20:29;22.80;97.50
37842;DHT22;23682;53.508;10.476;2022-08-01T12:23:06;22.80;96.80
37842;DHT22;23682;53.508;10.476;2022-08-01T12:25:34;22.80;96.90
37842;DHT22;23682;53.508;10.476;2022-08-01T12:28:02;22.80;96.80
37842;DHT22;23682;53.508;10.476;2022-08-01T12:30:30;22.60;96.40
37842;DHT22;23682;53.508;10.476;2022-08-01T12:33:05;22.60;96.90
37842;DHT22;23682;53.508;10.476;2022-08-01T12:35:32;22.70;96.50
37842;DHT22;23682;53.508;10.476;2022-08-01T12:38:02;22.70;96.50
37842;DHT22;23682;53.508;10.476;2022-08-01T12:40:32;22.80;96.90
37842;DHT22;23682;53.508;10.476;2022-08-01T12:43:04;22.90;96.60
37842;DHT22;23682;53.508;10.476;2022-08-01T12:45:40;22.90;96.70
37842;DHT22;23682;53.508;10.476;2022-08-01T12:48:22;22.90;96.70
37842;DHT22;23682;53.508;10.476;2022-08-01T12:50:49;23.00;96.90
37842;DHT22;23682;53.508;10.476;2022-08-01T12:53:19;22.80;96.70
37842;DHT22;23682;53.508;10.476;2022-08-01T12:55:49;22.90;96.60
37842;DHT22;23682;53.508;10.476;2022-08-01T12:58:31;23.00;96.00
37842;DHT22;23682;53.508;10.476;2022-08-01T13:01:09;23.10;96.30
37842;DHT22;23682;53.508;10.476;2022-08-01T13:03:37;23.20;95.20
37842;DHT22;23682;53.508;10.476;2022-08-01T13:06:14;23.10;95.10
37842;DHT22;23682;53.508;10.476;2022-08-01T13:08:44;23.10;95.30
37842;DHT22;23682;53.508;10.476;2022-08-01T13:11:13;23.10;95.00
37842;DHT22;23682;53.508;10.476;2022-08-01T13:16:10;23.00;95.20
37842;DHT22;23682;53.508;10.476;2022-08-01T13:18:57;22.80;95.80
37842;DHT22;23682;53.508;10.476;2022-08-01T13:21:29;22.70;95.70
37842;DHT22;23682;53.508;10.476;2022-08-01T13:24:23;22.60;95.40
37842;DHT22;23682;53.508;10.476;2022-08-01T13:26:52;22.60;94.90
37842;DHT22;23682;53.508;10.476;2022-08-01T13:29:22;22.70;95.30
37842;DHT22;23682;53.508;10.476;2022-08-01T13:31:54;22.70;95.10
37842;DHT22;23682;53.508;10.476;2022-08-01T13:34:32;22.70;95.00
37842;DHT22;23682;53.508;10.476;2022-08-01T13:37:00;22.70;95.00
37842;DHT22;23682;53.508;10.476;2022-08-01T13:39:33;22.70;94.70
37842;DHT22;23682;53.508;10.476;2022-08-01T13:42:15;22.70;94.80
37842;DHT22;23682;53.508;10.476;2022-08-01T13:44:47;22.60;94.30
37842;DHT22;23682;53.508;10.476;2022-08-01T13:47:13;22.60;94.50
37842;DHT22;23682;53.508;10.476;2022-08-01T13:49:42;22.50;93.80
37842;DHT22;23682;53.508;10.476;2022-08-01T13:52:10;22.40;93.10
37842;DHT22;23682;53.508;10.476;2022-08-01T13:54:37;22.40;93.30
37842;DHT22;23682;53.508;10.476;2022-08-01T13:57:03;22.40;93.20
37842;DHT22;23682;53.508;10.476;2022-08-01T13:59:31;22.40;93.60
37842;DHT22;23682;53.508;10.476;2022-08-01T14:01:57;22.40;93.80
37842;DHT22;23682;53.508;10.476;2022-08-01T14:04:24;22.40;93.50
37842;DHT22;23682;53.508;10.476;2022-08-01T14:06:51;22.40;93.90
37842;DHT22;23682;53.508;10.476;2022-08-01T14:09:18;22.40;93.40
37842;DHT22;23682;53.508;10.476;2022-08-01T14:11:50;22.40;94.40
37842;DHT22;23682;53.508;10.476;2022-08-01T14:14:17;22.50;94.00
37842;DHT22;23682;53.508;10.476;2022-08-01T14:16:44;22.50;93.90
37842;DHT22;23682;53.508;10.476;2022-08-01T14:19:13;22.50;93.90
37842;DHT22;23682;53.508;10.476;2022-08-01T14:21:44;22.60;94.10
37842;DHT22;23682;53.508;10.476;2022-08-01T14:24:11;22.60;94.20
37842;DHT22;23682;53.508;10.476;2022-08-01T14:26:38;22.60;93.90
37842;DHT22;23682;53.508;10.476;2022-08-01T14:29:05;22.60;94.40
37842;DHT22;23682;53.508;10.476;2022-08-01T14:31:32;22.40;93.30
37842;DHT22;23682;53.508;10.476;2022-08-01T14:34:00;22.20;92.80
37842;DHT22;23682;53.508;10.476;2022-08-01T14:36:27;22.20;93.90
37842;DHT22;23682;53.508;10.476;2022-08-01T14:38:57;22.30;94.00
37842;DHT22;23682;53.508;10.476;2022-08-01T14:41:27;22.40;94.00
37842;DHT22;23682;53.508;10.476;2022-08-01T14:43:56;22.30;93.40
37842;DHT22;23682;53.508;10.476;2022-08-01T14:46:23;22.30;93.50
37842;DHT22;23682;53.508;10.476;2022-08-01T14:48:49;22.40;94.00
37842;DHT22;23682;53.508;10.476;2022-08-01T14:51:17;22.50;93.70
37842;DHT22;23682;53.508;10.476;2022-08-01T14:53:43;22.50;94.10
37842;DHT22;23682;53.508;10.476;2022-08-01T14:56:16;22.50;93.30
37842;DHT22;23682;53.508;10.476;2022-08-01T14:58:44;22.50;93.60
37842;DHT22;23682;53.508;10.476;2022-08-01T15:01:10;22.50;93.80
37842;DHT22;23682;53.508;10.476;2022-08-01T15:03:37;22.50;92.50
37842;DHT22;23682;53.508;10.476;2022-08-01T15:06:04;22.30;92.10
37842;DHT22;23682;53.508;10.476;2022-08-01T15:08:32;22.30;92.50
37842;DHT22;23682;53.508;10.476;2022-08-01T15:10:59;22.40;92.90
37842;DHT22;23682;53.508;10.476;2022-08-01T15:13:27;22.40;93.10
37842;DHT22;23682;53.508;10.476;2022-08-01T15:15:54;22.40;92.80
37842;DHT22;23682;53.508;10.476;2022-08-01T15:18:29;22.30;92.50
37842;DHT22;23682;53.508;10.476;2022-08-01T15:20:59;22.10;92.80
37842;DHT22;23682;53.508;10.476;2022-08-01T15:23:26;22.20;92.80
37842;DHT22;23682;53.508;10.476;2022-08-01T15:25:53;22.20;92.10
37842;DHT22;23682;53.508;10.476;2022-08-01T15:28:20;22.20;92.50
37842;DHT22;23682;53.508;10.476;2022-08-01T15:30:47;22.20;92.10
37842;DHT22;23682;53.508;10.476;2022-08-01T15:33:13;22.20;92.60
37842;DHT22;23682;53.508;10.476;2022-08-01T15:35:40;22.10;92.20
37842;DHT22;23682;53.508;10.476;2022-08-01T15:38:09;22.10;92.10
37842;DHT22;23682;53.508;10.476;2022-08-01T15:40:35;22.00;92.70
37842;DHT22;23682;53.508;10.476;2022-08-01T15:43:02;22.10;93.00
37842;DHT22;23682;53.508;10.476;2022-08-01T15:45:29;22.10;92.70
37842;DHT22;23682;53.508;10.476;2022-08-01T15:48:13;21.90;92.20
37842;DHT22;23682;53.508;10.476;2022-08-01T15:50:40;21.80;92.20
37842;DHT22;23682;53.508;10.476;2022-08-01T15:53:07;21.90;92.80
37842;DHT22;23682;53.508;10.476;2022-08-01T15:55:37;21.90;93.00
37842;DHT22;23682;53.508;10.476;2022-08-01T15:58:06;21.80;93.10
37842;DHT22;23682;53.508;10.476;2022-08-01T16:00:33;21.90;93.50
37842;DHT22;23682;53.508;10.476;2022-08-01T16:03:08;21.80;93.30
37842;DHT22;23682;53.508;10.476;2022-08-01T16:05:42;21.70;93.50